sensor_id;sensor_type;location;lat;lon;timestamp;P1;durP1;ratioP1;P2;durP2;ratioP2
31348;SDS011;17976;48.480;11.946;2022-10-16T06:02:16;5.47;;;3.25;;
31348;SDS011;17976;48.480;11.946;2022-10-16T06:04:42;6.93;;;3.33;;
31348;SDS011;17976;48.480;11.946;2022-10-16T06:07:08;5.78;;;2.85;;
31348;SDS011;17976;48.480;11.946;2022-10-16T06:09:34;5.10;;;2.83;;
31348;SDS011;17976;48.480;11.946;2022-10-16T06:12:00;8.63;;;3.90;;
31348;SDS011;17976;48.480;11.946;2022-10-16T06:14:26;5.80;;;3.28;;
31348;SDS011;17976;48.480;11.946;2022-10-16T06:16:52;7.57;;;3.00;;
31348;SDS011;17976;48.480;11.946;2022-10-16T06:19:18;6.90;;;3.60;;
31348;SDS011;17976;48.480;11.946;2022-10-16T06:21:44;5.43;;;3.35;;
31348;SDS011;17976;48.480;11.946;2022-10-16T06:24:10;6.75;;;3.42;;
31348;SDS011;17976;48.480;11.946;2022-10-16T06:26:36;7.32;;;3.78;;
31348;SDS011;17976;48.480;11.946;2022-10-16T06:29:03;5.75;;;3.55;;
31348;SDS011;17976;48.480;11.946;2022-10-16T06:31:29;13.35;;;3.65;;
31348;SDS011;17976;48.480;11.946;2022-10-16T06:33:58;9.77;;;3.72;;
31348;SDS011;17976;48.480;11.946;2022-10-16T06:36:24;6.80;;;3.65;;
31348;SDS011;17976;48.480;11.946;2022-10-16T06:38:50;7.18;;;3.30;;
31348;SDS011;17976;48.480;11.946;2022-10-16T06:41:17;8.25;;;3.63;;
31348;SDS011;17976;48.480;11.946;2022-10-16T06:43:44;8.32;;;3.75;;
31348;SDS011;17976;48.480;11.946;2022-10-16T06:46:11;6.28;;;3.45;;
31348;SDS011;17976;48.480;11.946;2022-10-16T06:48:37;8.48;;;3.97;;
31348;SDS011;17976;48.480;11.946;2022-10-16T06:51:04;11.45;;;4.00;;
31348;SDS011;17976;48.480;11.946;2022-10-16T06:53:34;4.07;;;2.88;;
31348;SDS011;17976;48.480;11.946;2022-10-16T06:58:35;5.43;;;3.05;;
31348;SDS011;17976;48.480;11.946;2022-10-16T07:01:01;12.07;;;3.70;;
31348;SDS011;17976;48.480;11.946;2022-10-16T07:03:27;6.63;;;3.92;;
31348;SDS011;17976;48.480;11.946;2022-10-16T07:05:53;11.55;;;3.83;;
31348;SDS011;17976;48.480;11.946;2022-10-16T07:08:19;5.60;;;3.15;;
31348;SDS011;17976;48.480;11.946;2022-10-16T07:10:44;13.52;;;3.97;;
31348;SDS011;17976;48.480;11.946;2022-10-16T07:13:10;9.00;;;3.35;;
31348;SDS011;17976;48.480;11.946;2022-10-16T07:15:38;5.05;;;3.70;;
31348;SDS011;17976;48.480;11.946;2022-10-16T07:18:04;6.90;;;3.33;;
31348;SDS011;17976;48.480;11.946;2022-10-16T07:20:30;4.90;;;3.45;;
31348;SDS011;17976;48.480;11.946;2022-10-16T07:22:56;8.02;;;3.33;;
31348;SDS011;17976;48.480;11.946;2022-10-16T07:25:22;8.18;;;3.65;;
31348;SDS011;17976;48.480;11.946;2022-10-16T07:27:48;7.72;;;3.80;;
31348;SDS011;17976;48.480;11.946;2022-10-16T07:30:14;8.30;;;3.30;;
31348;SDS011;17976;48.480;11.946;2022-10-16T07:32:40;5.72;;;2.83;;
31348;SDS011;17976;48.480;11.946;2022-10-16T07:35:06;5.25;;;3.47;;
31348;SDS011;17976;48.480;11.946;2022-10-16T07:37:32;5.20;;;2.83;;
31348;SDS011;17976;48.480;11.946;2022-10-16T07:39:58;4.75;;;2.65;;
31348;SDS011;17976;48.480;11.946;2022-10-16T07:42:24;4.13;;;2.78;;
31348;SDS011;17976;48.480;11.946;2022-10-16T07:44:50;7.30;;;2.58;;
31348;SDS011;17976;48.480;11.946;2022-10-16T07:47:16;5.25;;;2.67;;
31348;SDS011;17976;48.480;11.946;2022-10-16T07:49:42;4.03;;;3.00;;
31348;SDS011;17976;48.480;11.946;2022-10-16T07:52:08;5.53;;;2.42;;
31348;SDS011;17976;48.480;11.946;2022-10-16T07:54:34;3.22;;;2.53;;
31348;SDS011;17976;48.480;11.946;2022-10-16T07:57:00;5.40;;;2.42;;
31348;SDS011;17976;48.480;11.946;2022-10-16T07:59:26;7.72;;;2.63;;
31348;SDS011;17976;48.480;11.946;2022-10-16T08:01:52;5.35;;;2.45;;
31348;SDS011;17976;48.480;11.946;2022-10-16T08:04:18;4.43;;;2.35;;
31348;SDS011;17976;48.480;11.946;2022-10-16T08:06:44;10.13;;;4.90;;
31348;SDS011;17976;48.480;11.946;2022-10-16T08:09:10;9.23;;;2.33;;
31348;SDS011;17976;48.480;11.946;2022-10-16T08:11:36;3.78;;;2.00;;
31348;SDS011;17976;48.480;11.946;2022-10-16T08:14:02;6.68;;;1.95;;
31348;SDS011;17976;48.480;11.946;2022-10-16T08:16:28;5.75;;;1.92;;
31348;SDS011;17976;48.480;11.946;2022-10-16T08:18:54;3.72;;;1.98;;
31348;SDS011;17976;48.480;11.946;2022-10-16T08:21:20;3.15;;;1.60;;
31348;SDS011;17976;48.480;11.946;2022-10-16T08:23:51;15.90;;;2.10;;
31348;SDS011;17976;48.480;11.946;2022-10-16T08:26:22;5.05;;;1.92;;
31348;SDS011;17976;48.480;11.946;2022-10-16T08:28:51;3.05;;;1.98;;
31348;SDS011;17976;48.480;11.946;2022-10-16T08:31:17;3.03;;;1.50;;
31348;SDS011;17976;48.480;11.946;2022-10-16T08:33:44;4.32;;;1.70;;
31348;SDS011;17976;48.480;11.946;2022-10-16T08:36:12;5.05;;;1.58;;
31348;SDS011;17976;48.480;11.946;2022-10-16T08:38:38;2.90;;;1.40;;
31348;SDS011;17976;48.480;11.946;2022-10-16T08:43:43;5.10;;;1.60;;
31348;SDS011;17976;48.480;11.946;2022-10-16T08:46:20;7.13;;;1.88;;
31348;SDS011;17976;48.480;11.946;2022-10-16T08:48:51;2.78;;;1.63;;
31348;SDS011;17976;48.480;11.946;2022-10-16T08:51:22;3.22;;;1.92;;
31348;SDS011;17976;48.480;11.946;2022-10-16T08:53:51;8.45;;;1.63;;
31348;SDS011;17976;48.480;11.946;2022-10-16T08:56:18;5.68;;;1.67;;
31348;SDS011;17976;48.480;11.946;2022-10-16T08:58:44;9.85;;;2.05;;
31348;SDS011;17976;48.480;11.946;2022-10-16T09:01:12;3.15;;;1.80;;
31348;SDS011;17976;48.480;11.946;2022-10-16T09:08:54;5.32;;;1.70;;
31348;SDS011;17976;48.480;11.946;2022-10-16T09:17:03;2.60;;;1.60;;
31348;SDS011;17976;48.480;11.946;2022-10-16T09:19:40;4.80;;;1.92;;
31348;SDS011;17976;48.480;11.946;2022-10-16T09:22:10;7.45;;;1.73;;
31348;SDS011;17976;48.480;11.946;2022-10-16T09:24:38;4.55;;;1.70;;
31348;SDS011;17976;48.480;11.946;2022-10-16T09:27:04;2.63;;;1.67;;
31348;SDS011;17976;48.480;11.946;2022-10-16T09:29:29;5.20;;;1.77;;
31348;SDS011;17976;48.480;11.946;2022-10-16T09:31:55;6.88;;;1.70;;
31348;SDS011;17976;48.480;11.946;2022-10-16T09:34:27;2.13;;;1.73;;
31348;SDS011;17976;48.480;11.946;2022-10-16T09:36:55;3.47;;;2.33;;
31348;SDS011;17976;48.480;11.946;2022-10-16T09:39:23;2.67;;;1.80;;
31348;SDS011;17976;48.480;11.946;2022-10-16T09:41:49;2.10;;;1.63;;
31348;SDS011;17976;48.480;11.946;2022-10-16T09:44:17;2.05;;;1.77;;
31348;SDS011;17976;48.480;11.946;2022-10-16T09:46:45;7.45;;;2.58;;
31348;SDS011;17976;48.480;11.946;2022-10-16T09:49:21;3.50;;;1.88;;
31348;SDS011;17976;48.480;11.946;2022-10-16T09:51:47;3.40;;;1.70;;
31348;SDS011;17976;48.480;11.946;2022-10-16T09:54:18;14.02;;;2.15;;
31348;SDS011;17976;48.480;11.946;2022-10-16T09:56:44;2.33;;;1.77;;
31348;SDS011;17976;48.480;11.946;2022-10-16T10:01:38;5.72;;;1.85;;
31348;SDS011;17976;48.480;11.946;2022-10-16T10:04:05;2.05;;;1.70;;
31348;SDS011;17976;48.480;11.946;2022-10-16T10:06:33;2.03;;;1.55;;
31348;SDS011;17976;48.480;11.946;2022-10-16T10:14:39;3.90;;;1.70;;
31348;SDS011;17976;48.480;11.946;2022-10-16T10:19:39;3.58;;;1.65;;
31348;SDS011;17976;48.480;11.946;2022-10-16T10:32:35;3.17;;;1.50;;
31348;SDS011;17976;48.480;11.946;2022-10-16T10:40:23;2.03;;;1.60;;
31348;SDS011;17976;48.480;11.946;2022-10-16T10:42:55;2.83;;;1.45;;
31348;SDS011;17976;48.480;11.946;2022-10-16T10:45:27;1.70;;;1.38;;
31348;SDS011;17976;48.480;11.946;2022-10-16T10:47:59;4.40;;;1.23;;
31348;SDS011;17976;48.480;11.946;2022-10-16T10:53:13;2.95;;;1.65;;
31348;SDS011;17976;48.480;11.946;2022-10-16T10:55:51;2.72;;;1.38;;
31348;SDS011;17976;48.480;11.946;2022-10-16T11:01:01;3.38;;;1.10;;
31348;SDS011;17976;48.480;11.946;2022-10-16T11:06:42;4.22;;;1.35;;
31348;SDS011;17976;48.480;11.946;2022-10-16T11:09:13;1.92;;;1.33;;
31348;SDS011;17976;48.480;11.946;2022-10-16T11:11:47;2.60;;;1.40;;
31348;SDS011;17976;48.480;11.946;2022-10-16T11:14:17;2.50;;;1.40;;
31348;SDS011;17976;48.480;11.946;2022-10-16T11:16:55;3.75;;;1.30;;
31348;SDS011;17976;48.480;11.946;2022-10-16T11:19:26;3.85;;;1.45;;
31348;SDS011;17976;48.480;11.946;2022-10-16T11:21:55;3.97;;;1.45;;
31348;SDS011;17976;48.480;11.946;2022-10-16T11:24:33;4.03;;;1.60;;
31348;SDS011;17976;48.480;11.946;2022-10-16T11:27:02;4.22;;;1.52;;
31348;SDS011;17976;48.480;11.946;2022-10-16T11:29:30;4.32;;;1.73;;
31348;SDS011;17976;48.480;11.946;2022-10-16T11:31:58;81.07;;;10.50;;
31348;SDS011;17976;48.480;11.946;2022-10-16T11:34:30;2.95;;;1.40;;
31348;SDS011;17976;48.480;11.946;2022-10-16T11:39:24;3.25;;;1.42;;
31348;SDS011;17976;48.480;11.946;2022-10-16T11:41:52;2.72;;;1.38;;
31348;SDS011;17976;48.480;11.946;2022-10-16T11:49:32;2.38;;;0.82;;
31348;SDS011;17976;48.480;11.946;2022-10-16T11:52:02;2.53;;;1.02;;
31348;SDS011;17976;48.480;11.946;2022-10-16T11:57:17;2.92;;;0.95;;
31348;SDS011;17976;48.480;11.946;2022-10-16T11:59:49;2.15;;;1.23;;
31348;SDS011;17976;48.480;11.946;2022-10-16T12:07:43;0.90;;;0.70;;
31348;SDS011;17976;48.480;11.946;2022-10-16T12:10:20;2.50;;;0.82;;
31348;SDS011;17976;48.480;11.946;2022-10-16T12:12:47;0.65;;;0.50;;
31348;SDS011;17976;48.480;11.946;2022-10-16T12:17:45;1.20;;;0.60;;
31348;SDS011;17976;48.480;11.946;2022-10-16T12:22:40;4.07;;;0.60;;
31348;SDS011;17976;48.480;11.946;2022-10-16T12:25:19;1.25;;;0.75;;
31348;SDS011;17976;48.480;11.946;2022-10-16T12:27:46;1.80;;;0.70;;
31348;SDS011;17976;48.480;11.946;2022-10-16T12:30:20;1.15;;;0.60;;
31348;SDS011;17976;48.480;11.946;2022-10-16T12:32:52;0.70;;;0.60;;
31348;SDS011;17976;48.480;11.946;2022-10-16T12:35:20;1.77;;;0.60;;
31348;SDS011;17976;48.480;11.946;2022-10-16T12:37:47;1.08;;;0.60;;
31348;SDS011;17976;48.480;11.946;2022-10-16T12:40:29;0.90;;;0.65;;
31348;SDS011;17976;48.480;11.946;2022-10-16T12:42:56;1.58;;;0.70;;
31348;SDS011;17976;48.480;11.946;2022-10-16T12:45:32;0.77;;;0.50;;
31348;SDS011;17976;48.480;11.946;2022-10-16T12:47:59;2.70;;;1.10;;
31348;SDS011;17976;48.480;11.946;2022-10-16T12:50:36;1.77;;;0.60;;
31348;SDS011;17976;48.480;11.946;2022-10-16T12:53:03;3.95;;;0.70;;
31348;SDS011;17976;48.480;11.946;2022-10-16T12:55:42;1.42;;;0.70;;
31348;SDS011;17976;48.480;11.946;2022-10-16T12:58:16;3.20;;;0.47;;
31348;SDS011;17976;48.480;11.946;2022-10-16T13:00:58;2.65;;;0.90;;
31348;SDS011;17976;48.480;11.946;2022-10-16T13:16:28;1.08;;;0.63;;
31348;SDS011;17976;48.480;11.946;2022-10-16T13:22:00;2.35;;;0.82;;
31348;SDS011;17976;48.480;11.946;2022-10-16T13:24:35;3.28;;;0.70;;
31348;SDS011;17976;48.480;11.946;2022-10-16T13:27:26;1.67;;;0.90;;
31348;SDS011;17976;48.480;11.946;2022-10-16T13:30:00;1.20;;;0.90;;
31348;SDS011;17976;48.480;11.946;2022-10-16T13:32:27;1.30;;;0.82;;
31348;SDS011;17976;48.480;11.946;2022-10-16T13:34:53;1.58;;;0.80;;
31348;SDS011;17976;48.480;11.946;2022-10-16T13:37:21;2.13;;;0.60;;
31348;SDS011;17976;48.480;11.946;2022-10-16T13:39:47;1.88;;;0.52;;
31348;SDS011;17976;48.480;11.946;2022-10-16T13:42:19;0.65;;;0.55;;
31348;SDS011;17976;48.480;11.946;2022-10-16T13:44:51;0.60;;;0.50;;
31348;SDS011;17976;48.480;11.946;2022-10-16T13:47:19;0.80;;;0.60;;
31348;SDS011;17976;48.480;11.946;2022-10-16T13:49:45;1.67;;;0.70;;
31348;SDS011;17976;48.480;11.946;2022-10-16T13:52:16;1.75;;;0.85;;
31348;SDS011;17976;48.480;11.946;2022-10-16T13:54:42;4.03;;;1.00;;
31348;SDS011;17976;48.480;11.946;2022-10-16T13:57:11;0.95;;;0.85;;
31348;SDS011;17976;48.480;11.946;2022-10-16T13:59:37;1.73;;;0.75;;
31348;SDS011;17976;48.480;11.946;2022-10-16T14:02:15;1.02;;;0.57;;
31348;SDS011;17976;48.480;11.946;2022-10-16T14:04:43;2.75;;;0.77;;
31348;SDS011;17976;48.480;11.946;2022-10-16T14:07:13;0.93;;;0.60;;
31348;SDS011;17976;48.480;11.946;2022-10-16T14:09:40;1.30;;;0.88;;
31348;SDS011;17976;48.480;11.946;2022-10-16T14:12:10;3.05;;;0.70;;
31348;SDS011;17976;48.480;11.946;2022-10-16T14:14:41;0.70;;;0.52;;
31348;SDS011;17976;48.480;11.946;2022-10-16T14:17:14;4.88;;;0.80;;
31348;SDS011;17976;48.480;11.946;2022-10-16T14:19:40;9.73;;;0.73;;
31348;SDS011;17976;48.480;11.946;2022-10-16T14:22:23;1.20;;;0.55;;
31348;SDS011;17976;48.480;11.946;2022-10-16T14:24:51;0.65;;;0.38;;
31348;SDS011;17976;48.480;11.946;2022-10-16T14:27:36;2.40;;;0.40;;
31348;SDS011;17976;48.480;11.946;2022-10-16T14:32:34;0.73;;;0.30;;
31348;SDS011;17976;48.480;11.946;2022-10-16T14:35:00;2.70;;;0.45;;
31348;SDS011;17976;48.480;11.946;2022-10-16T14:37:27;0.90;;;0.50;;
31348;SDS011;17976;48.480;11.946;2022-10-16T14:39:54;1.05;;;0.30;;
31348;SDS011;17976;48.480;11.946;2022-10-16T14:42:21;1.70;;;0.52;;
31348;SDS011;17976;48.480;11.946;2022-10-16T14:44:49;4.13;;;1.08;;
31348;SDS011;17976;48.480;11.946;2022-10-16T14:47:18;2.00;;;0.60;;
31348;SDS011;17976;48.480;11.946;2022-10-16T14:49:50;4.03;;;0.82;;
31348;SDS011;17976;48.480;11.946;2022-10-16T14:52:16;3.70;;;0.73;;
31348;SDS011;17976;48.480;11.946;2022-10-16T14:54:42;3.47;;;0.57;;
31348;SDS011;17976;48.480;11.946;2022-10-16T14:57:18;0.95;;;0.55;;
31348;SDS011;17976;48.480;11.946;2022-10-16T14:59:44;2.08;;;0.50;;
31348;SDS011;17976;48.480;11.946;2022-10-16T15:02:23;3.08;;;0.70;;
31348;SDS011;17976;48.480;11.946;2022-10-16T15:04:50;2.17;;;0.85;;
31348;SDS011;17976;48.480;11.946;2022-10-16T15:07:16;2.88;;;0.57;;
31348;SDS011;17976;48.480;11.946;2022-10-16T15:09:42;2.05;;;0.98;;
31348;SDS011;17976;48.480;11.946;2022-10-16T15:12:08;0.70;;;0.50;;
31348;SDS011;17976;48.480;11.946;2022-10-16T15:14:34;2.08;;;1.08;;
31348;SDS011;17976;48.480;11.946;2022-10-16T15:17:01;2.55;;;1.10;;
31348;SDS011;17976;48.480;11.946;2022-10-16T15:19:27;5.30;;;2.60;;
31348;SDS011;17976;48.480;11.946;2022-10-16T15:21:53;11.27;;;5.88;;
31348;SDS011;17976;48.480;11.946;2022-10-16T15:24:19;11.27;;;6.35;;
31348;SDS011;17976;48.480;11.946;2022-10-16T15:26:45;7.38;;;2.35;;
31348;SDS011;17976;48.480;11.946;2022-10-16T15:29:12;5.70;;;1.60;;
31348;SDS011;17976;48.480;11.946;2022-10-16T15:31:38;1.58;;;1.15;;
31348;SDS011;17976;48.480;11.946;2022-10-16T15:34:07;3.08;;;1.00;;
31348;SDS011;17976;48.480;11.946;2022-10-16T15:36:34;4.63;;;0.70;;
31348;SDS011;17976;48.480;11.946;2022-10-16T15:39:05;1.27;;;0.63;;
31348;SDS011;17976;48.480;11.946;2022-10-16T15:41:34;3.65;;;0.57;;
31348;SDS011;17976;48.480;11.946;2022-10-16T15:44:00;1.08;;;0.40;;
31348;SDS011;17976;48.480;11.946;2022-10-16T15:46:26;7.30;;;0.65;;
31348;SDS011;17976;48.480;11.946;2022-10-16T15:48:55;10.77;;;2.20;;
31348;SDS011;17976;48.480;11.946;2022-10-16T15:51:21;7.47;;;3.58;;
